sensor_id;sensor_type;location;lat;lon;timestamp;temperature;humidity
76897;SHT30;65856;52.178;21.176;2023-08-31T00:00:44;19.27;78.84
76897;SHT30;65856;52.178;21.176;2023-08-31T00:03:10;19.24;78.81
76897;SHT30;65856;52.178;21.176;2023-08-31T00:05:40;19.20;78.88
76897;SHT30;65856;52.178;21.176;2023-08-31T00:08:08;19.20;78.90
76897;SHT30;65856;52.178;21.176;2023-08-31T00:10:36;19.21;79.05
76897;SHT30;65856;52.178;21.176;2023-08-31T00:13:02;19.18;79.09
76897;SHT30;65856;52.178;21.176;2023-08-31T00:15:29;19.19;79.18
76897;SHT30;65856;52.178;21.176;2023-08-31T00:17:58;19.20;79.19
76897;SHT30;65856;52.178;21.176;2023-08-31T00:20:24;19.19;79.20
76897;SHT30;65856;52.178;21.176;2023-08-31T00:22:51;19.21;79.23
76897;SHT30;65856;52.178;21.176;2023-08-31T00:25:17;19.21;79.18
76897;SHT30;65856;52.178;21.176;2023-08-31T00:27:43;19.20;79.14
76897;SHT30;65856;52.178;21.176;2023-08-31T00:30:13;19.18;79.10
76897;SHT30;65856;52.178;21.176;2023-08-31T00:32:39;19.17;78.91
76897;SHT30;65856;52.178;21.176;2023-08-31T00:35:08;19.15;78.74
76897;SHT30;65856;52.178;21.176;2023-08-31T00:37:34;19.11;78.76
76897;SHT30;65856;52.178;21.176;2023-08-31T00:40:00;19.06;78.92
76897;SHT30;65856;52.178;21.176;2023-08-31T00:42:26;19.06;79.01
76897;SHT30;65856;52.178;21.176;2023-08-31T00:44:54;19.09;78.99
76897;SHT30;65856;52.178;21.176;2023-08-31T00:47:20;19.06;78.76
76897;SHT30;65856;52.178;21.176;2023-08-31T00:49:45;19.05;78.81
76897;SHT30;65856;52.178;21.176;2023-08-31T00:52:12;19.04;78.80
76897;SHT30;65856;52.178;21.176;2023-08-31T00:54:38;19.05;78.78
76897;SHT30;65856;52.178;21.176;2023-08-31T00:57:04;19.05;78.79
76897;SHT30;65856;52.178;21.176;2023-08-31T00:59:29;19.05;78.67
76897;SHT30;65856;52.178;21.176;2023-08-31T01:02:11;19.04;78.62
76897;SHT30;65856;52.178;21.176;2023-08-31T01:05:08;18.99;78.42
76897;SHT30;65856;52.178;21.176;2023-08-31T01:08:03;18.93;78.34
76897;SHT30;65856;52.178;21.176;2023-08-31T01:10:52;18.90;78.41
76897;SHT30;65856;52.178;21.176;2023-08-31T01:13:43;18.90;78.50
76897;SHT30;65856;52.178;21.176;2023-08-31T01:16:20;18.90;78.47
76897;SHT30;65856;52.178;21.176;2023-08-31T01:18:50;18.90;78.51
76897;SHT30;65856;52.178;21.176;2023-08-31T01:23:57;18.88;78.41
76897;SHT30;65856;52.178;21.176;2023-08-31T01:26:23;18.86;78.32
76897;SHT30;65856;52.178;21.176;2023-08-31T01:28:51;18.83;78.33
76897;SHT30;65856;52.178;21.176;2023-08-31T01:31:18;18.82;78.34
76897;SHT30;65856;52.178;21.176;2023-08-31T01:33:43;18.81;78.37
76897;SHT30;65856;52.178;21.176;2023-08-31T01:36:28;18.81;78.39
76897;SHT30;65856;52.178;21.176;2023-08-31T01:39:00;18.79;78.35
76897;SHT30;65856;52.178;21.176;2023-08-31T01:41:36;18.80;78.40
76897;SHT30;65856;52.178;21.176;2023-08-31T01:44:09;18.81;78.35
76897;SHT30;65856;52.178;21.176;2023-08-31T01:46:41;18.77;78.18
76897;SHT30;65856;52.178;21.176;2023-08-31T01:49:11;18.70;78.14
76897;SHT30;65856;52.178;21.176;2023-08-31T01:51:37;18.64;78.15
76897;SHT30;65856;52.178;21.176;2023-08-31T01:54:03;18.64;78.27
76897;SHT30;65856;52.178;21.176;2023-08-31T01:56:28;18.63;78.34
76897;SHT30;65856;52.178;21.176;2023-08-31T01:58:54;18.62;78.39
76897;SHT30;65856;52.178;21.176;2023-08-31T02:01:19;18.64;78.43
76897;SHT30;65856;52.178;21.176;2023-08-31T02:03:45;18.64;78.38
76897;SHT30;65856;52.178;21.176;2023-08-31T02:06:10;18.67;78.38
76897;SHT30;65856;52.178;21.176;2023-08-31T02:08:36;18.62;78.14
76897;SHT30;65856;52.178;21.176;2023-08-31T02:11:01;18.58;78.21
76897;SHT30;65856;52.178;21.176;2023-08-31T02:13:27;18.57;78.34
76897;SHT30;65856;52.178;21.176;2023-08-31T02:15:55;18.56;78.27
76897;SHT30;65856;52.178;21.176;2023-08-31T02:18:21;18.55;78.30
76897;SHT30;65856;52.178;21.176;2023-08-31T02:20:46;18.53;78.18
76897;SHT30;65856;52.178;21.176;2023-08-31T02:23:12;18.51;78.30
76897;SHT30;65856;52.178;21.176;2023-08-31T02:25:37;18.51;78.25
76897;SHT30;65856;52.178;21.176;2023-08-31T02:28:03;18.47;78.29
76897;SHT30;65856;52.178;21.176;2023-08-31T02:30:29;18.43;78.36
76897;SHT30;65856;52.178;21.176;2023-08-31T02:32:55;18.41;78.43
76897;SHT30;65856;52.178;21.176;2023-08-31T02:35:21;18.38;78.35
76897;SHT30;65856;52.178;21.176;2023-08-31T02:37:46;18.37;78.44
76897;SHT30;65856;52.178;21.176;2023-08-31T02:40:12;18.40;78.45
76897;SHT30;65856;52.178;21.176;2023-08-31T02:42:37;18.41;78.46
76897;SHT30;65856;52.178;21.176;2023-08-31T02:45:03;18.40;78.47
76897;SHT30;65856;52.178;21.176;2023-08-31T02:47:29;18.36;78.49
76897;SHT30;65856;52.178;21.176;2023-08-31T02:49:54;18.34;78.72
76897;SHT30;65856;52.178;21.176;2023-08-31T02:52:21;18.37;78.70
76897;SHT30;65856;52.178;21.176;2023-08-31T02:54:47;18.37;78.69
76897;SHT30;65856;52.178;21.176;2023-08-31T02:57:12;18.36;78.68
76897;SHT30;65856;52.178;21.176;2023-08-31T02:59:38;18.30;78.64
76897;SHT30;65856;52.178;21.176;2023-08-31T03:02:03;18.29;78.68
76897;SHT30;65856;52.178;21.176;2023-08-31T03:04:29;18.30;78.75
76897;SHT30;65856;52.178;21.176;2023-08-31T03:06:55;18.31;78.65
76897;SHT30;65856;52.178;21.176;2023-08-31T03:09:21;18.34;78.60
76897;SHT30;65856;52.178;21.176;2023-08-31T03:11:47;18.34;78.60
76897;SHT30;65856;52.178;21.176;2023-08-31T03:14:12;18.36;78.54
76897;SHT30;65856;52.178;21.176;2023-08-31T03:16:38;18.33;78.55
76897;SHT30;65856;52.178;21.176;2023-08-31T03:19:03;18.35;78.61
76897;SHT30;65856;52.178;21.176;2023-08-31T03:21:30;18.37;78.51
76897;SHT30;65856;52.178;21.176;2023-08-31T03:23:56;18.32;78.37
76897;SHT30;65856;52.178;21.176;2023-08-31T03:26:21;18.34;78.57
76897;SHT30;65856;52.178;21.176;2023-08-31T03:28:47;18.36;78.68
76897;SHT30;65856;52.178;21.176;2023-08-31T03:31:12;18.36;78.56
76897;SHT30;65856;52.178;21.176;2023-08-31T03:33:38;18.34;78.48
76897;SHT30;65856;52.178;21.176;2023-08-31T03:36:03;18.32;78.56
76897;SHT30;65856;52.178;21.176;2023-08-31T03:38:30;18.32;78.65
76897;SHT30;65856;52.178;21.176;2023-08-31T03:40:57;18.33;78.80
76897;SHT30;65856;52.178;21.176;2023-08-31T03:43:22;18.30;78.98
76897;SHT30;65856;52.178;21.176;2023-08-31T03:45:49;18.30;79.29
76897;SHT30;65856;52.178;21.176;2023-08-31T03:48:24;18.25;79.28
76897;SHT30;65856;52.178;21.176;2023-08-31T03:50:50;18.24;79.51
76897;SHT30;65856;52.178;21.176;2023-08-31T03:53:17;18.24;79.61
76897;SHT30;65856;52.178;21.176;2023-08-31T03:55:43;18.23;79.70
76897;SHT30;65856;52.178;21.176;2023-08-31T03:58:08;18.19;79.54
76897;SHT30;65856;52.178;21.176;2023-08-31T04:00:34;18.13;79.61
76897;SHT30;65856;52.178;21.176;2023-08-31T04:02:59;18.12;79.71
76897;SHT30;65856;52.178;21.176;2023-08-31T04:05:25;18.11;79.80
76897;SHT30;65856;52.178;21.176;2023-08-31T04:07:51;18.12;79.70
76897;SHT30;65856;52.178;21.176;2023-08-31T04:10:16;18.11;79.58
76897;SHT30;65856;52.178;21.176;2023-08-31T04:12:42;18.09;79.51
76897;SHT30;65856;52.178;21.176;2023-08-31T04:15:08;18.09;79.44
76897;SHT30;65856;52.178;21.176;2023-08-31T04:17:34;18.09;79.36
76897;SHT30;65856;52.178;21.176;2023-08-31T04:20:00;18.10;79.35
76897;SHT30;65856;52.178;21.176;2023-08-31T04:22:26;18.08;79.28
76897;SHT30;65856;52.178;21.176;2023-08-31T04:24:52;18.06;79.38
76897;SHT30;65856;52.178;21.176;2023-08-31T04:27:18;18.08;79.39
76897;SHT30;65856;52.178;21.176;2023-08-31T04:29:44;18.08;79.37
76897;SHT30;65856;52.178;21.176;2023-08-31T04:32:09;18.06;79.37
76897;SHT30;65856;52.178;21.176;2023-08-31T04:34:35;18.09;79.39
76897;SHT30;65856;52.178;21.176;2023-08-31T04:37:01;18.11;79.42
76897;SHT30;65856;52.178;21.176;2023-08-31T04:39:27;18.15;79.50
76897;SHT30;65856;52.178;21.176;2023-08-31T04:41:52;18.16;79.48
76897;SHT30;65856;52.178;21.176;2023-08-31T04:44:18;18.18;79.50
76897;SHT30;65856;52.178;21.176;2023-08-31T04:46:43;18.17;79.43
76897;SHT30;65856;52.178;21.176;2023-08-31T04:49:09;18.15;79.54
76897;SHT30;65856;52.178;21.176;2023-08-31T04:51:35;18.13;79.65
76897;SHT30;65856;52.178;21.176;2023-08-31T04:54:04;18.13;79.60
76897;SHT30;65856;52.178;21.176;2023-08-31T04:56:31;18.12;79.74
76897;SHT30;65856;52.178;21.176;2023-08-31T04:58:58;18.11;79.86
76897;SHT30;65856;52.178;21.176;2023-08-31T05:01:25;18.10;79.94
76897;SHT30;65856;52.178;21.176;2023-08-31T05:03:50;18.08;79.99
76897;SHT30;65856;52.178;21.176;2023-08-31T05:06:16;18.10;80.07
76897;SHT30;65856;52.178;21.176;2023-08-31T05:08:42;18.12;79.93
76897;SHT30;65856;52.178;21.176;2023-08-31T05:11:07;18.13;80.02
76897;SHT30;65856;52.178;21.176;2023-08-31T05:13:33;18.17;80.09
76897;SHT30;65856;52.178;21.176;2023-08-31T05:15:59;18.21;79.97
76897;SHT30;65856;52.178;21.176;2023-08-31T05:18:25;18.23;79.93
76897;SHT30;65856;52.178;21.176;2023-08-31T05:20:50;18.26;80.00
76897;SHT30;65856;52.178;21.176;2023-08-31T05:23:16;18.30;79.99
76897;SHT30;65856;52.178;21.176;2023-08-31T05:25:42;18.32;79.99
76897;SHT30;65856;52.178;21.176;2023-08-31T05:28:10;18.35;79.70
76897;SHT30;65856;52.178;21.176;2023-08-31T05:30:36;18.38;79.78
76897;SHT30;65856;52.178;21.176;2023-08-31T05:33:02;18.44;79.61
76897;SHT30;65856;52.178;21.176;2023-08-31T05:35:28;18.45;79.50
76897;SHT30;65856;52.178;21.176;2023-08-31T05:37:55;18.50;79.43
76897;SHT30;65856;52.178;21.176;2023-08-31T05:40:21;18.53;79.34
76897;SHT30;65856;52.178;21.176;2023-08-31T05:42:47;18.61;79.30
76897;SHT30;65856;52.178;21.176;2023-08-31T05:45:12;18.65;79.04
76897;SHT30;65856;52.178;21.176;2023-08-31T05:47:40;18.67;79.05
76897;SHT30;65856;52.178;21.176;2023-08-31T05:50:06;18.69;79.00
76897;SHT30;65856;52.178;21.176;2023-08-31T05:52:32;18.73;78.82
76897;SHT30;65856;52.178;21.176;2023-08-31T05:54:58;18.73;78.70
76897;SHT30;65856;52.178;21.176;2023-08-31T05:57:23;18.74;78.46
76897;SHT30;65856;52.178;21.176;2023-08-31T05:59:52;18.72;78.30
76897;SHT30;65856;52.178;21.176;2023-08-31T06:02:18;18.71;78.38
76897;SHT30;65856;52.178;21.176;2023-08-31T06:04:43;18.70;78.36
76897;SHT30;65856;52.178;21.176;2023-08-31T06:07:09;18.69;78.25
76897;SHT30;65856;52.178;21.176;2023-08-31T06:09:34;18.68;78.24
76897;SHT30;65856;52.178;21.176;2023-08-31T06:12:00;18.67;78.10
76897;SHT30;65856;52.178;21.176;2023-08-31T06:14:25;18.64;78.05
76897;SHT30;65856;52.178;21.176;2023-08-31T06:16:51;18.60;78.04
76897;SHT30;65856;52.178;21.176;2023-08-31T06:19:17;18.57;77.90
76897;SHT30;65856;52.178;21.176;2023-08-31T06:21:43;18.56;77.90
76897;SHT30;65856;52.178;21.176;2023-08-31T06:24:09;18.59;77.82
76897;SHT30;65856;52.178;21.176;2023-08-31T06:26:37;18.65;77.78
76897;SHT30;65856;52.178;21.176;2023-08-31T06:29:04;18.70;77.73
76897;SHT30;65856;52.178;21.176;2023-08-31T06:31:30;18.78;77.54
76897;SHT30;65856;52.178;21.176;2023-08-31T06:33:55;18.90;77.02
76897;SHT30;65856;52.178;21.176;2023-08-31T06:36:21;18.97;76.72
76897;SHT30;65856;52.178;21.176;2023-08-31T06:38:46;19.10;76.69
76897;SHT30;65856;52.178;21.176;2023-08-31T06:41:12;19.27;75.87
76897;SHT30;65856;52.178;21.176;2023-08-31T06:43:37;19.46;75.42
76897;SHT30;65856;52.178;21.176;2023-08-31T06:46:03;19.56;75.12
76897;SHT30;65856;52.178;21.176;2023-08-31T06:48:28;19.64;75.24
76897;SHT30;65856;52.178;21.176;2023-08-31T06:50:54;19.73;75.04
76897;SHT30;65856;52.178;21.176;2023-08-31T06:53:21;19.74;74.33
76897;SHT30;65856;52.178;21.176;2023-08-31T06:55:46;19.77;73.94
76897;SHT30;65856;52.178;21.176;2023-08-31T06:58:13;19.79;73.96
76897;SHT30;65856;52.178;21.176;2023-08-31T07:00:38;19.79;73.23
76897;SHT30;65856;52.178;21.176;2023-08-31T07:03:04;19.77;73.23
76897;SHT30;65856;52.178;21.176;2023-08-31T07:05:33;19.80;73.29
76897;SHT30;65856;52.178;21.176;2023-08-31T07:08:00;19.86;73.22
76897;SHT30;65856;52.178;21.176;2023-08-31T07:10:27;19.90;73.32
76897;SHT30;65856;52.178;21.176;2023-08-31T07:12:53;19.96;72.93
76897;SHT30;65856;52.178;21.176;2023-08-31T07:15:18;19.98;72.52
76897;SHT30;65856;52.178;21.176;2023-08-31T07:17:43;20.00;72.17
76897;SHT30;65856;52.178;21.176;2023-08-31T07:20:09;20.08;71.78
76897;SHT30;65856;52.178;21.176;2023-08-31T07:22:37;20.16;71.55
76897;SHT30;65856;52.178;21.176;2023-08-31T07:25:04;20.23;71.22
76897;SHT30;65856;52.178;21.176;2023-08-31T07:27:31;20.35;70.76
76897;SHT30;65856;52.178;21.176;2023-08-31T07:29:56;20.53;70.18
76897;SHT30;65856;52.178;21.176;2023-08-31T07:32:22;20.71;69.38
76897;SHT30;65856;52.178;21.176;2023-08-31T07:34:47;20.79;69.04
76897;SHT30;65856;52.178;21.176;2023-08-31T07:37:13;20.88;69.16
76897;SHT30;65856;52.178;21.176;2023-08-31T07:39:38;21.03;68.89
76897;SHT30;65856;52.178;21.176;2023-08-31T07:42:05;21.19;68.53
76897;SHT30;65856;52.178;21.176;2023-08-31T07:44:31;21.34;68.11
76897;SHT30;65856;52.178;21.176;2023-08-31T07:46:56;21.50;67.40
76897;SHT30;65856;52.178;21.176;2023-08-31T07:49:22;21.72;67.07
76897;SHT30;65856;52.178;21.176;2023-08-31T07:51:47;21.97;66.07
76897;SHT30;65856;52.178;21.176;2023-08-31T07:54:20;22.05;65.77
76897;SHT30;65856;52.178;21.176;2023-08-31T07:56:46;22.09;65.80
76897;SHT30;65856;52.178;21.176;2023-08-31T07:59:12;22.16;65.66
76897;SHT30;65856;52.178;21.176;2023-08-31T08:01:37;22.32;65.47
76897;SHT30;65856;52.178;21.176;2023-08-31T08:04:03;22.44;65.36
76897;SHT30;65856;52.178;21.176;2023-08-31T08:06:28;22.51;64.94
76897;SHT30;65856;52.178;21.176;2023-08-31T08:08:54;22.58;64.54
76897;SHT30;65856;52.178;21.176;2023-08-31T08:11:22;22.65;63.81
76897;SHT30;65856;52.178;21.176;2023-08-31T08:13:48;22.68;63.64
76897;SHT30;65856;52.178;21.176;2023-08-31T08:16:13;22.74;63.62
76897;SHT30;65856;52.178;21.176;2023-08-31T08:18:39;22.79;63.28
76897;SHT30;65856;52.178;21.176;2023-08-31T08:21:06;22.75;62.96
76897;SHT30;65856;52.178;21.176;2023-08-31T08:23:32;22.69;63.03
76897;SHT30;65856;52.178;21.176;2023-08-31T08:25:58;22.66;62.76
76897;SHT30;65856;52.178;21.176;2023-08-31T08:28:26;22.67;62.83
76897;SHT30;65856;52.178;21.176;2023-08-31T08:30:53;22.71;62.24
76897;SHT30;65856;52.178;21.176;2023-08-31T08:33:19;22.75;62.47
76897;SHT30;65856;52.178;21.176;2023-08-31T08:35:45;22.80;62.11
76897;SHT30;65856;52.178;21.176;2023-08-31T08:38:11;22.78;60.62
76897;SHT30;65856;52.178;21.176;2023-08-31T08:40:37;22.75;60.71
76897;SHT30;65856;52.178;21.176;2023-08-31T08:43:05;22.81;60.98
76897;SHT30;65856;52.178;21.176;2023-08-31T08:45:39;22.91;60.82
76897;SHT30;65856;52.178;21.176;2023-08-31T08:48:07;23.02;60.48
76897;SHT30;65856;52.178;21.176;2023-08-31T08:50:34;23.04;59.50
76897;SHT30;65856;52.178;21.176;2023-08-31T08:53:05;23.08;59.64
76897;SHT30;65856;52.178;21.176;2023-08-31T08:55:31;23.09;59.26
76897;SHT30;65856;52.178;21.176;2023-08-31T08:57:58;23.15;59.50
76897;SHT30;65856;52.178;21.176;2023-08-31T09:00:25;23.30;59.46
76897;SHT30;65856;52.178;21.176;2023-08-31T09:02:52;23.42;59.46
76897;SHT30;65856;52.178;21.176;2023-08-31T09:05:18;23.63;59.66
76897;SHT30;65856;52.178;21.176;2023-08-31T09:10:41;24.02;58.48
76897;SHT30;65856;52.178;21.176;2023-08-31T09:13:12;24.08;57.65
76897;SHT30;65856;52.178;21.176;2023-08-31T09:15:44;24.23;57.39
76897;SHT30;65856;52.178;21.176;2023-08-31T09:20:53;24.62;56.87
76897;SHT30;65856;52.178;21.176;2023-08-31T09:23:24;24.70;56.32
76897;SHT30;65856;52.178;21.176;2023-08-31T09:25:51;24.73;56.27
76897;SHT30;65856;52.178;21.176;2023-08-31T09:28:19;24.72;55.74
76897;SHT30;65856;52.178;21.176;2023-08-31T09:30:49;24.76;55.98
76897;SHT30;65856;52.178;21.176;2023-08-31T09:33:18;24.82;55.19
76897;SHT30;65856;52.178;21.176;2023-08-31T09:35:48;24.87;55.02
76897;SHT30;65856;52.178;21.176;2023-08-31T09:38:22;24.89;54.68
76897;SHT30;65856;52.178;21.176;2023-08-31T09:40:48;24.92;54.33
76897;SHT30;65856;52.178;21.176;2023-08-31T09:43:20;24.85;53.58
76897;SHT30;65856;52.178;21.176;2023-08-31T09:45:48;24.81;53.66
76897;SHT30;65856;52.178;21.176;2023-08-31T09:48:17;24.79;53.45
76897;SHT30;65856;52.178;21.176;2023-08-31T09:50:44;24.62;53.29
76897;SHT30;65856;52.178;21.176;2023-08-31T09:53:11;24.52;53.59
76897;SHT30;65856;52.178;21.176;2023-08-31T09:55:38;24.48;53.62
76897;SHT30;65856;52.178;21.176;2023-08-31T09:58:06;24.50;53.83
76897;SHT30;65856;52.178;21.176;2023-08-31T10:00:35;24.62;53.73
76897;SHT30;65856;52.178;21.176;2023-08-31T10:03:03;24.76;53.31
76897;SHT30;65856;52.178;21.176;2023-08-31T10:05:30;24.92;53.60
76897;SHT30;65856;52.178;21.176;2023-08-31T10:07:58;25.08;53.85
76897;SHT30;65856;52.178;21.176;2023-08-31T10:10:25;25.19;53.26
76897;SHT30;65856;52.178;21.176;2023-08-31T10:12:54;25.28;52.62
76897;SHT30;65856;52.178;21.176;2023-08-31T10:15:22;25.29;52.31
76897;SHT30;65856;52.178;21.176;2023-08-31T10:17:47;25.27;52.09
76897;SHT30;65856;52.178;21.176;2023-08-31T10:20:16;25.26;52.97
76897;SHT30;65856;52.178;21.176;2023-08-31T10:22:43;25.28;52.78
76897;SHT30;65856;52.178;21.176;2023-08-31T10:25:10;25.20;52.04
76897;SHT30;65856;52.178;21.176;2023-08-31T10:27:37;25.23;52.60
76897;SHT30;65856;52.178;21.176;2023-08-31T10:32:46;25.26;52.08
76897;SHT30;65856;52.178;21.176;2023-08-31T10:38:23;24.99;52.81
76897;SHT30;65856;52.178;21.176;2023-08-31T10:43:45;24.78;53.40
76897;SHT30;65856;52.178;21.176;2023-08-31T10:46:25;24.78;54.03
76897;SHT30;65856;52.178;21.176;2023-08-31T10:51:42;24.78;54.35
76897;SHT30;65856;52.178;21.176;2023-08-31T10:54:23;24.75;53.43
76897;SHT30;65856;52.178;21.176;2023-08-31T10:57:02;24.70;53.26
76897;SHT30;65856;52.178;21.176;2023-08-31T10:59:43;24.61;53.13
76897;SHT30;65856;52.178;21.176;2023-08-31T11:05:12;24.46;53.83
76897;SHT30;65856;52.178;21.176;2023-08-31T11:07:46;24.46;54.30
76897;SHT30;65856;52.178;21.176;2023-08-31T11:12:45;24.44;54.41
76897;SHT30;65856;52.178;21.176;2023-08-31T11:15:21;24.39;53.91
76897;SHT30;65856;52.178;21.176;2023-08-31T11:17:52;24.38;53.82
76897;SHT30;65856;52.178;21.176;2023-08-31T11:20:21;24.38;53.92
76897;SHT30;65856;52.178;21.176;2023-08-31T11:22:53;24.34;54.05
76897;SHT30;65856;52.178;21.176;2023-08-31T11:25:19;24.32;54.31
76897;SHT30;65856;52.178;21.176;2023-08-31T11:27:55;24.34;54.33
76897;SHT30;65856;52.178;21.176;2023-08-31T11:30:26;24.38;54.61
76897;SHT30;65856;52.178;21.176;2023-08-31T11:33:01;24.38;54.25
76897;SHT30;65856;52.178;21.176;2023-08-31T11:35:36;24.41;54.45
76897;SHT30;65856;52.178;21.176;2023-08-31T11:38:07;24.37;52.68
76897;SHT30;65856;52.178;21.176;2023-08-31T11:40:33;24.31;53.04
76897;SHT30;65856;52.178;21.176;2023-08-31T11:43:00;24.33;53.80
76897;SHT30;65856;52.178;21.176;2023-08-31T11:45:26;24.37;53.20
76897;SHT30;65856;52.178;21.176;2023-08-31T11:47:53;24.37;53.37
76897;SHT30;65856;52.178;21.176;2023-08-31T11:50:20;24.43;53.85
76897;SHT30;65856;52.178;21.176;2023-08-31T11:52:47;24.54;54.12
76897;SHT30;65856;52.178;21.176;2023-08-31T11:55:15;24.61;54.11
76897;SHT30;65856;52.178;21.176;2023-08-31T11:57:52;24.64;54.14
76897;SHT30;65856;52.178;21.176;2023-08-31T12:00:20;24.65;54.39
76897;SHT30;65856;52.178;21.176;2023-08-31T12:02:56;24.66;54.08
76897;SHT30;65856;52.178;21.176;2023-08-31T12:05:23;24.67;53.78
76897;SHT30;65856;52.178;21.176;2023-08-31T12:07:49;24.68;53.50
76897;SHT30;65856;52.178;21.176;2023-08-31T12:10:16;24.72;53.52
76897;SHT30;65856;52.178;21.176;2023-08-31T12:12:41;24.75;52.92
76897;SHT30;65856;52.178;21.176;2023-08-31T12:15:07;24.65;52.16
76897;SHT30;65856;52.178;21.176;2023-08-31T12:17:36;24.61;53.48
76897;SHT30;65856;52.178;21.176;2023-08-31T12:20:08;24.65;53.69
76897;SHT30;65856;52.178;21.176;2023-08-31T12:22:35;24.67;53.23
76897;SHT30;65856;52.178;21.176;2023-08-31T12:25:00;24.65;53.05
76897;SHT30;65856;52.178;21.176;2023-08-31T12:27:26;24.62;53.44
76897;SHT30;65856;52.178;21.176;2023-08-31T12:29:51;24.65;53.50
76897;SHT30;65856;52.178;21.176;2023-08-31T12:32:17;24.64;53.81
76897;SHT30;65856;52.178;21.176;2023-08-31T12:34:45;24.62;53.32
76897;SHT30;65856;52.178;21.176;2023-08-31T12:37:10;24.60;53.19
76897;SHT30;65856;52.178;21.176;2023-08-31T12:39:36;24.58;53.03
76897;SHT30;65856;52.178;21.176;2023-08-31T12:42:02;24.56;52.97
76897;SHT30;65856;52.178;21.176;2023-08-31T12:44:29;24.57;53.25
76897;SHT30;65856;52.178;21.176;2023-08-31T12:46:55;24.59;53.52
76897;SHT30;65856;52.178;21.176;2023-08-31T12:49:20;24.62;53.26
76897;SHT30;65856;52.178;21.176;2023-08-31T12:51:46;24.67;53.15
76897;SHT30;65856;52.178;21.176;2023-08-31T12:54:12;24.65;52.66
76897;SHT30;65856;52.178;21.176;2023-08-31T12:56:37;24.62;52.76
76897;SHT30;65856;52.178;21.176;2023-08-31T12:59:03;24.60;53.18
76897;SHT30;65856;52.178;21.176;2023-08-31T13:01:30;24.60;53.40
76897;SHT30;65856;52.178;21.176;2023-08-31T13:03:58;24.61;53.41
76897;SHT30;65856;52.178;21.176;2023-08-31T13:06:24;24.59;53.54
76897;SHT30;65856;52.178;21.176;2023-08-31T13:08:51;24.58;53.25
76897;SHT30;65856;52.178;21.176;2023-08-31T13:11:17;24.57;53.17
76897;SHT30;65856;52.178;21.176;2023-08-31T13:13:48;24.53;52.99
76897;SHT30;65856;52.178;21.176;2023-08-31T13:16:14;24.43;51.86
76897;SHT30;65856;52.178;21.176;2023-08-31T13:18:39;24.40;52.80
76897;SHT30;65856;52.178;21.176;2023-08-31T13:21:05;24.39;51.81
76897;SHT30;65856;52.178;21.176;2023-08-31T13:23:30;24.37;52.04
76897;SHT30;65856;52.178;21.176;2023-08-31T13:25:56;24.35;52.40
76897;SHT30;65856;52.178;21.176;2023-08-31T13:28:22;24.37;52.86
76897;SHT30;65856;52.178;21.176;2023-08-31T13:30:48;24.38;53.48
76897;SHT30;65856;52.178;21.176;2023-08-31T13:33:13;24.41;53.30
76897;SHT30;65856;52.178;21.176;2023-08-31T13:35:39;24.40;52.67
76897;SHT30;65856;52.178;21.176;2023-08-31T13:38:04;24.37;52.37
76897;SHT30;65856;52.178;21.176;2023-08-31T13:40:30;24.38;53.48
76897;SHT30;65856;52.178;21.176;2023-08-31T13:42:56;24.41;53.85
76897;SHT30;65856;52.178;21.176;2023-08-31T13:45:28;24.43;53.81
76897;SHT30;65856;52.178;21.176;2023-08-31T13:47:55;24.45;53.77
76897;SHT30;65856;52.178;21.176;2023-08-31T13:50:25;24.45;53.24
76897;SHT30;65856;52.178;21.176;2023-08-31T13:52:54;24.45;53.84
76897;SHT30;65856;52.178;21.176;2023-08-31T13:55:19;24.47;53.56
76897;SHT30;65856;52.178;21.176;2023-08-31T13:57:45;24.43;53.11
76897;SHT30;65856;52.178;21.176;2023-08-31T14:00:11;24.42;52.62
76897;SHT30;65856;52.178;21.176;2023-08-31T14:02:38;24.41;52.41
76897;SHT30;65856;52.178;21.176;2023-08-31T14:05:06;24.40;51.92
76897;SHT30;65856;52.178;21.176;2023-08-31T14:07:34;24.37;51.94
76897;SHT30;65856;52.178;21.176;2023-08-31T14:10:00;24.32;51.98
76897;SHT30;65856;52.178;21.176;2023-08-31T14:12:26;24.24;52.14
76897;SHT30;65856;52.178;21.176;2023-08-31T14:14:52;24.14;52.18
76897;SHT30;65856;52.178;21.176;2023-08-31T14:17:18;24.08;52.82
76897;SHT30;65856;52.178;21.176;2023-08-31T14:19:44;24.04;53.00
76897;SHT30;65856;52.178;21.176;2023-08-31T14:22:10;23.99;53.23
76897;SHT30;65856;52.178;21.176;2023-08-31T14:24:36;23.90;53.25
76897;SHT30;65856;52.178;21.176;2023-08-31T14:27:02;23.74;52.70
76897;SHT30;65856;52.178;21.176;2023-08-31T14:29:29;23.52;53.02
76897;SHT30;65856;52.178;21.176;2023-08-31T14:31:55;23.33;53.44
76897;SHT30;65856;52.178;21.176;2023-08-31T14:34:20;23.18;53.94
76897;SHT30;65856;52.178;21.176;2023-08-31T14:36:47;23.06;54.39
76897;SHT30;65856;52.178;21.176;2023-08-31T14:39:13;22.97;54.90
76897;SHT30;65856;52.178;21.176;2023-08-31T14:41:40;22.83;54.87
76897;SHT30;65856;52.178;21.176;2023-08-31T14:44:06;22.66;54.79
76897;SHT30;65856;52.178;21.176;2023-08-31T14:46:32;22.52;55.11
76897;SHT30;65856;52.178;21.176;2023-08-31T14:48:58;22.43;55.86
76897;SHT30;65856;52.178;21.176;2023-08-31T14:51:23;22.31;56.06
76897;SHT30;65856;52.178;21.176;2023-08-31T14:53:49;22.17;57.34
76897;SHT30;65856;52.178;21.176;2023-08-31T14:56:15;21.93;58.58
76897;SHT30;65856;52.178;21.176;2023-08-31T14:58:40;21.64;59.35
76897;SHT30;65856;52.178;21.176;2023-08-31T15:01:06;21.39;60.77
76897;SHT30;65856;52.178;21.176;2023-08-31T15:03:31;21.22;62.18
76897;SHT30;65856;52.178;21.176;2023-08-31T15:05:57;20.99;63.40
76897;SHT30;65856;52.178;21.176;2023-08-31T15:08:34;20.67;64.84
76897;SHT30;65856;52.178;21.176;2023-08-31T15:11:05;20.38;66.08
76897;SHT30;65856;52.178;21.176;2023-08-31T15:13:30;20.16;66.72
76897;SHT30;65856;52.178;21.176;2023-08-31T15:15:56;20.02;67.30
76897;SHT30;65856;52.178;21.176;2023-08-31T15:18:23;19.95;67.59
76897;SHT30;65856;52.178;21.176;2023-08-31T15:20:51;19.89;68.11
76897;SHT30;65856;52.178;21.176;2023-08-31T15:23:16;19.88;68.11
76897;SHT30;65856;52.178;21.176;2023-08-31T15:25:42;19.86;68.70
76897;SHT30;65856;52.178;21.176;2023-08-31T15:28:07;19.88;69.29
76897;SHT30;65856;52.178;21.176;2023-08-31T15:30:34;19.90;69.58
76897;SHT30;65856;52.178;21.176;2023-08-31T15:33:02;19.92;70.07
76897;SHT30;65856;52.178;21.176;2023-08-31T15:35:29;19.94;70.38
76897;SHT30;65856;52.178;21.176;2023-08-31T15:37:57;19.97;70.36
76897;SHT30;65856;52.178;21.176;2023-08-31T15:40:24;19.96;70.49